M I D A S
Marine Information and Data Acquisition System
Tripno 811 of the Zeeleeuw from 2004-11-23 08:13:38 to 2004-11-23 15:31:57
Back to CruiseResearch ActivitiesStationsMapUnderway DataData graphs

EquipmentUnitsComments
TimeDGPSUTC
LatitudeDGPSDM.mWGS84
LongitudeDGPSDM.mWGS84
SpeedMeteo Stationm/sRelative wind speed
DirectionMeteo StationdegRelative wind direction
TemperatureMeteo Stationdeg CelciusAir temperature
PressureMeteo StationPaAtmospheric pressure
HumidityMeteo Station%Relative humidity
Missing or incorrect values are displayed as -999
Metereological data collected by the RV Zeeleeuw from 2004-11-23 06:49:41 to 2004-11-23 15:42:07
Time Latitude Longitude Speed Direction Temperature Pressure Humidity
2004-11-23 06:50 51°13.616 2°56.063 4.2 167 10.7 102310 86
2004-11-23 06:51 51°13.617 2°56.063 5.8 203 10.7 102310 86
2004-11-23 06:52 51°13.618 2°56.063 4 178 10.7 102310 86
2004-11-23 06:53 51°13.618 2°56.062 5.4 202 10.6 102310 86
2004-11-23 06:54 51°13.617 2°56.061 5.3 203 10.6 102310 86
2004-11-23 06:55 51°13.618 2°56.06 4.1 212 10.6 102320 87
2004-11-23 06:56 51°13.618 2°56.06 5.1 191 10.5 102320 87
2004-11-23 06:57 51°13.617 2°56.06 5.8 204 10.5 102320 87
2004-11-23 06:58 51°13.617 2°56.06 5 197 10.5 102320 87
2004-11-23 06:59 51°13.618 2°56.06 5.2 205 10.5 102320 87
2004-11-23 07:00 51°13.619 2°56.06 5.8 205 10.5 102320 87
2004-11-23 07:01 51°13.619 2°56.06 4.5 191 10.5 102320 88
2004-11-23 07:02 51°13.619 2°56.06 3.6 217 10.5 102320 88
2004-11-23 07:03 51°13.62 2°56.059 4.9 193 10.5 102320 88
2004-11-23 07:04 51°13.62 2°56.06 4.1 212 10.5 102320 88
2004-11-23 07:05 51°13.619 2°56.06 5.6 208 10.5 102330 88
2004-11-23 07:06 51°13.618 2°56.06 3.3 174 10.4 102330 88
2004-11-23 07:07 51°13.618 2°56.06 3.7 191 10.4 102330 89
2004-11-23 07:08 51°13.618 2°56.06 3.1 195 10.5 102330 89
2004-11-23 07:09 51°13.618 2°56.059 3.7 199 10.5 102330 89
2004-11-23 07:10 51°13.618 2°56.06 6.3 208 10.5 102330 89
2004-11-23 07:11 51°13.619 2°56.06 5.3 185 10.5 102330 89
2004-11-23 07:12 51°13.619 2°56.06 4.4 203 10.6 102330 89
2004-11-23 07:13 51°13.619 2°56.06 3.2 182 10.5 102340 89
2004-11-23 07:14 51°13.619 2°56.06 4.9 221 10.5 102340 89
2004-11-23 07:15 51°13.619 2°56.059 5.3 202 10.5 102340 89
2004-11-23 07:16 51°13.616 2°56.059 4.6 208 10.5 102340 89
2004-11-23 07:17 51°13.618 2°56.059 2.5 196 10.5 102350 89
2004-11-23 07:18 51°13.618 2°56.06 2.9 218 10.5 102350 89
2004-11-23 07:19 51°13.619 2°56.06 1.9 196 10.4 102350 89
2004-11-23 07:20 51°13.619 2°56.06 2.7 201 10.4 102350 89
2004-11-23 07:21 51°13.619 2°56.06 2 195 10.4 102360 89
2004-11-23 07:22 51°13.618 2°56.06 3.7 193 10.4 102360 90
2004-11-23 07:23 51°13.618 2°56.06 2.8 214 10.4 102360 90
2004-11-23 07:24 51°13.618 2°56.06 4 209 10.4 102360 90
2004-11-23 07:25 51°13.62 2°56.063 2.9 192 10.4 102360 90
2004-11-23 07:26 51°13.622 2°56.061 5 197 10.4 102370 90
2004-11-23 07:27 51°13.62 2°56.061 3.6 185 10.4 102370 90
2004-11-23 07:28 51°13.619 2°56.061 5.3 209 10.4 102370 90
2004-11-23 07:29 51°13.617 2°56.061 3.1 198 10.4 102370 90
2004-11-23 07:30 51°13.617 2°56.061 -999 -999 -999 -999 -999
2004-11-23 07:32 51°13.618 2°56.061 5.1 195 10.4 102370 90
2004-11-23 07:33 51°13.621 2°56.061 4.3 194 10.4 102370 90
2004-11-23 07:34 51°13.62 2°56.06 3.7 204 10.4 102370 90
2004-11-23 07:35 51°13.62 2°56.06 4.9 213 10.4 102370 90
2004-11-23 07:36 51°13.618 2°56.06 4.3 213 10.4 102370 90
2004-11-23 07:37 51°13.619 2°56.06 5.7 201 10.4 102380 90
2004-11-23 07:38 51°13.617 2°56.06 4.1 194 10.5 102380 90
2004-11-23 07:39 51°13.617 2°56.059 3.5 192 10.5 102370 90
2004-11-23 07:41 51°13.617 2°56.06 3.2 186 10.6 102370 91
2004-11-23 07:42 51°13.618 2°56.061 4 192 10.6 102370 90
2004-11-23 07:43 51°13.618 2°56.061 8.5 173 10.6 102370 90
2004-11-23 07:44 51°13.618 2°56.061 2.1 201 10.6 102370 90
2004-11-23 07:45 51°13.617 2°56.061 4.5 183 10.6 102380 90
2004-11-23 07:46 51°13.618 2°56.061 3.7 194 10.6 102380 90
2004-11-23 07:47 51°13.619 2°56.061 5.2 186 10.6 102380 89
2004-11-23 07:49 51°13.618 2°56.061 4.9 186 10.6 102380 89
2004-11-23 07:50 51°13.618 2°56.061 2.3 191 10.6 102380 89
2004-11-23 07:51 51°13.618 2°56.06 3.3 186 10.6 102380 89
2004-11-23 07:52 51°13.617 2°56.06 4.1 197 10.6 102380 89
2004-11-23 07:53 51°13.617 2°56.06 3.6 186 10.6 102390 89
2004-11-23 07:54 51°13.616 2°56.06 3 201 10.6 102390 89
2004-11-23 07:56 51°13.616 2°56.06 3 197 10.6 102390 89
2004-11-23 07:57 51°13.617 2°56.061 5.5 196 10.6 102390 89
2004-11-23 07:58 51°13.617 2°56.06 2.8 196 10.6 102390 89
2004-11-23 07:59 51°13.618 2°56.061 2.6 183 10.6 102390 90
2004-11-23 08:00 51°13.618 2°56.061 3.6 190 10.6 102400 90
2004-11-23 08:01 51°13.618 2°56.061 3.8 195 10.6 102400 90
2004-11-23 08:03 51°13.618 2°56.06 2.9 196 10.7 102400 90
2004-11-23 08:04 51°13.619 2°56.061 4 183 10.7 102400 90
2004-11-23 08:05 51°13.62 2°56.06 3.7 190 10.7 102400 90
2004-11-23 08:06 51°13.62 2°56.06 3.7 198 10.7 102400 90
2004-11-23 08:07 51°13.62 2°56.06 4.2 185 10.7 102400 90
2004-11-23 08:08 51°13.619 2°56.061 3.6 186 10.8 102400 90
2004-11-23 08:10 51°13.618 2°56.061 5.1 199 10.7 102410 90
2004-11-23 08:11 51°13.617 2°56.062 3 197 10.8 102400 91
2004-11-23 08:12 51°13.617 2°56.062 4.3 192 10.9 102410 91
2004-11-23 08:14 51°13.619 2°56.048 6.5 200 10.8 102410 90
2004-11-23 08:15 51°13.63 2°55.994 5.8 226 10.7 102420 90
2004-11-23 08:16 51°13.598 2°56.061 3.8 185 10.7 102420 91
2004-11-23 08:18 51°13.54 2°56.175 3.6 231 10.6 102420 90
2004-11-23 08:19 51°13.534 2°56.21 6.4 263 10.6 102430 90
2004-11-23 08:20 51°13.543 2°56.216 5.9 324 10.5 102430 91
2004-11-23 08:22 51°13.544 2°56.21 5.9 11 10.5 102420 91
2004-11-23 08:23 51°13.558 2°56.137 6.8 20 10.5 102430 91
2004-11-23 08:24 51°13.583 2°56.061 8.1 4 10.5 102440 91
2004-11-23 08:25 51°13.65 2°55.916 8.3 4 10.5 102430 91
2004-11-23 08:26 51°13.743 2°55.733 9.3 13 10.5 102430 91
2004-11-23 08:27 51°13.853 2°55.615 8.7 339 10.5 102440 91
2004-11-23 08:29 51°14.023 2°55.494 8.8 350 10.5 102440 91
2004-11-23 08:30 51°14.181 2°55.374 9.7 353 10.3 102430 91
2004-11-23 08:32 51°14.367 2°55.058 13 4 -999 -999 -999
2004-11-23 08:33 51°14.626 2°54.818 14.1 359 10.2 102430 92
2004-11-23 08:35 51°14.954 2°54.551 13.4 4 10.2 102410 92
2004-11-23 08:36 51°15.175 2°54.367 14.2 3 10.2 102410 92
2004-11-23 08:37 51°15.381 2°54.185 15.3 2 10.2 102410 92
2004-11-23 08:38 51°15.595 2°54.008 13.6 1 10.2 102410 93
2004-11-23 08:39 51°15.786 2°53.844 13.7 2 10.2 102410 93
2004-11-23 08:41 51°16.104 2°53.58 12.8 4 10.2 102420 93
2004-11-23 08:42 51°16.301 2°53.413 14.7 2 10.2 102420 93
2004-11-23 08:43 51°16.587 2°53.174 13.2 4 10.2 102420 93
2004-11-23 08:45 51°16.809 2°52.986 13.8 3 10.2 102420 93
2004-11-23 08:46 51°17.004 2°52.818 13.8 1 10.2 102420 93
2004-11-23 08:47 51°17.233 2°52.629 12.6 4 10.2 102430 93
2004-11-23 08:48 51°17.396 2°52.402 13 12 10.3 102430 93
2004-11-23 08:49 51°17.535 2°52.12 13.2 16 10.3 102430 93
2004-11-23 08:50 51°17.698 2°51.785 13.9 17 10.3 102430 93
2004-11-23 08:51 51°17.857 2°51.457 13.4 16 10.3 102440 93
2004-11-23 08:52 51°17.981 2°51.198 11.9 15 10.3 102440 93
2004-11-23 08:54 51°18.15 2°50.848 12.9 16 10.3 102460 93
2004-11-23 08:55 51°18.283 2°50.555 12.3 15 10.3 102450 93
2004-11-23 08:56 51°18.475 2°50.14 12 17 10.3 102460 93
2004-11-23 08:58 51°18.677 2°49.713 12.4 18 10.3 102460 93
2004-11-23 08:59 51°18.839 2°49.341 12.5 22 10.3 102460 93
2004-11-23 09:00 51°18.956 2°49.067 12 23 10.4 102450 93
2004-11-23 09:01 51°19.073 2°48.785 12.8 23 10.4 102460 92
2004-11-23 09:03 51°19.272 2°48.306 14 24 10.5 102460 92
2004-11-23 09:04 51°19.395 2°48.002 12.7 21 10.5 102450 92
2004-11-23 09:05 51°19.522 2°47.679 13 19 10.5 102450 92
2004-11-23 09:06 51°19.636 2°47.396 13.4 19 10.5 102460 92
2004-11-23 09:07 51°19.782 2°47.042 12.8 19 10.5 102460 92
2004-11-23 09:08 51°19.866 2°46.742 13.5 30 10.5 102450 91
2004-11-23 09:09 51°19.929 2°46.397 12.9 33 10.6 102460 91
2004-11-23 09:10 51°19.958 2°46.077 12.1 31 10.6 102450 91
2004-11-23 09:12 51°19.994 2°45.712 12 34 10.6 102460 91
2004-11-23 09:13 51°20.029 2°45.39 11.7 29 10.6 102460 91
2004-11-23 09:14 51°20.076 2°44.986 12.3 34 10.6 102460 91
2004-11-23 09:15 51°20.115 2°44.648 12.1 35 10.6 102460 91
2004-11-23 09:16 51°20.16 2°44.265 12.8 34 10.7 102450 91
2004-11-23 09:17 51°20.197 2°43.938 12.7 33 10.7 102450 91
2004-11-23 09:18 51°20.252 2°43.466 12.1 29 10.7 102450 91
2004-11-23 09:20 51°20.299 2°43.098 12.3 31 10.7 102460 91
2004-11-23 09:21 51°20.343 2°42.743 12.5 38 10.7 102460 91
2004-11-23 09:22 51°20.366 2°42.42 12.5 36 10.8 102480 91
2004-11-23 09:23 51°20.393 2°42.065 13.2 34 10.8 102480 91
2004-11-23 09:25 51°20.442 2°41.492 12.3 35 10.8 102490 91
2004-11-23 09:26 51°20.475 2°41.141 12.3 37 10.8 102490 91
2004-11-23 09:27 51°20.517 2°40.699 12.8 37 10.8 102480 91
2004-11-23 09:28 51°20.548 2°40.369 11.6 35 10.8 102500 91
2004-11-23 09:29 51°20.588 2°39.923 12.1 36 10.8 102480 91
2004-11-23 09:31 51°20.623 2°39.546 12.9 39 10.8 102500 91
2004-11-23 09:33 51°20.688 2°38.884 12.2 38 10.9 102500 91
2004-11-23 09:34 51°20.725 2°38.501 12.9 33 10.8 102520 90
2004-11-23 09:35 51°20.767 2°38.077 12.5 35 10.9 102490 90
2004-11-23 09:36 51°20.798 2°37.771 12 39 10.9 102520 90
2004-11-23 09:38 51°20.845 2°37.332 12 35 10.9 102510 90
2004-11-23 09:39 51°20.893 2°36.88 11 36 10.9 102500 90
2004-11-23 09:40 51°20.927 2°36.562 13.2 41 10.9 102520 90
2004-11-23 09:41 51°20.966 2°36.215 12.6 40 10.9 102520 90
2004-11-23 09:42 51°21.019 2°35.766 13.6 39 10.9 102510 90
2004-11-23 09:45 51°21.123 2°35.112 11.2 33 10.9 102510 90
2004-11-23 09:46 51°21.182 2°34.787 13.6 37 10.9 102530 90
2004-11-23 09:47 51°21.251 2°34.407 12.9 37 11 102520 89
2004-11-23 09:48 51°21.318 2°34.03 12.8 36 11 102520 89
2004-11-23 09:50 51°21.405 2°33.525 13.8 37 11 102530 89
2004-11-23 09:51 51°21.458 2°33.208 12.4 31 11 102530 89
2004-11-23 09:52 51°21.584 2°32.818 14.4 5 11 102550 89
2004-11-23 09:53 51°21.888 2°32.872 13.5 340 11.1 102560 89
2004-11-23 09:54 51°22.119 2°33.061 11.9 345 11.1 102560 89
2004-11-23 09:55 51°22.33 2°33.24 13.2 341 11.1 102530 89
2004-11-23 09:57 51°22.66 2°33.367 13 5 11.1 102560 89
2004-11-23 09:58 51°22.823 2°33.171 10 39 11.1 102560 88
2004-11-23 09:59 51°22.885 2°32.87 12.7 38 11.1 102560 88
2004-11-23 10:00 51°22.88 2°32.471 11.3 47 11.1 102560 88
2004-11-23 10:02 51°22.86 2°32.005 10.5 45 11.1 102580 88
2004-11-23 10:03 51°22.855 2°31.596 11.1 50 11.1 102560 88
2004-11-23 10:05 51°22.849 2°30.969 11.8 47 11.1 102560 88
2004-11-23 10:07 51°22.841 2°30.372 11.5 45 11.1 102580 88
2004-11-23 10:08 51°22.838 2°30.038 10.6 45 11.1 102580 88
2004-11-23 10:09 51°22.837 2°29.72 12 43 11.1 102570 88
2004-11-23 10:10 51°22.82 2°29.401 11.2 44 11.1 102570 88
2004-11-23 10:11 51°22.792 2°29.019 10.4 48 11.1 102570 88
2004-11-23 10:12 51°22.752 2°28.532 11.6 48 11.1 102580 88
2004-11-23 10:14 51°22.717 2°28.113 12 45 11.1 102590 87
2004-11-23 10:15 51°22.672 2°27.593 12.3 42 11.1 102590 87
2004-11-23 10:16 51°22.647 2°27.286 11.3 41 11.1 102600 87
2004-11-23 10:18 51°22.616 2°26.849 10.5 37 11.1 102590 88
2004-11-23 10:19 51°22.611 2°26.519 11.3 45 11.1 102590 88
2004-11-23 10:20 51°22.614 2°26.13 11.9 39 11.1 102590 87
2004-11-23 10:21 51°22.653 2°25.783 12.6 44 11.2 102610 88
2004-11-23 10:23 51°22.717 2°25.287 12.2 33 11.1 102600 87
2004-11-23 10:24 51°22.804 2°24.709 12.2 36 11.1 102600 87
2004-11-23 10:26 51°22.882 2°24.203 12.5 33 11.2 102600 87
2004-11-23 10:27 51°22.932 2°23.879 13.8 34 11.2 102610 87
2004-11-23 10:28 51°22.991 2°23.49 12.8 35 11.2 102610 87
2004-11-23 10:30 51°23.077 2°22.898 12.7 42 11.2 102610 87
2004-11-23 10:31 51°23.127 2°22.559 12.4 39 11.2 102600 87
2004-11-23 10:33 51°23.214 2°21.986 12.4 38 11.2 102610 86
2004-11-23 10:34 51°23.284 2°21.549 12 39 11.2 102610 86
2004-11-23 10:35 51°23.351 2°21.236 12.4 34 11.2 102610 86
2004-11-23 10:37 51°23.477 2°20.785 13 29 11.3 102620 86
2004-11-23 10:38 51°23.585 2°20.48 13.8 23 11.3 102620 86
2004-11-23 10:40 51°23.837 2°19.998 13.8 18 11.3 102620 86
2004-11-23 10:41 51°24.127 2°19.71 13.8 12 11.3 102600 86
2004-11-23 10:42 51°24.366 2°19.586 13.7 5 11.3 102630 85
2004-11-23 10:43 51°24.587 2°19.478 12.8 6 11.3 102630 85
2004-11-23 10:45 51°24.906 2°19.313 13.6 10 11.3 102620 85
2004-11-23 10:46 51°25.13 2°19.197 14.2 5 11.3 102630 85
2004-11-23 10:47 51°25.353 2°19.081 13.4 7 11.4 102620 85
2004-11-23 10:48 51°25.663 2°18.925 12.9 3 11.3 102630 85
2004-11-23 10:49 51°25.894 2°18.805 12.7 4 11.3 102640 85
2004-11-23 10:51 51°26.18 2°18.646 13.1 5 11.3 102630 85
2004-11-23 10:52 51°26.508 2°18.467 13.6 8 11.4 102630 85
2004-11-23 10:53 51°26.822 2°18.3 13.7 7 11.3 102630 85
2004-11-23 10:54 51°27.047 2°18.18 13 8 11.3 102630 86
2004-11-23 10:56 51°27.359 2°18.03 12.8 6 11.3 102630 86
2004-11-23 10:57 51°27.683 2°17.879 13.2 7 11.3 102630 86
2004-11-23 10:59 51°27.972 2°17.75 13.3 8 11.3 102630 86
2004-11-23 11:00 51°28.246 2°17.623 12.3 3 11.2 102630 85
2004-11-23 11:01 51°28.532 2°17.487 12.7 5 11.2 102630 85
2004-11-23 11:02 51°28.755 2°17.38 14.1 4 11.2 102640 85
2004-11-23 11:03 51°28.977 2°17.271 13.8 358 11.3 102630 85
2004-11-23 11:04 51°29.19 2°17.159 13.4 5 11.3 102640 85
2004-11-23 11:05 51°29.417 2°17.048 12.7 8 11.4 102650 85
2004-11-23 11:06 51°29.645 2°16.942 13.5 5 11.4 102640 84
2004-11-23 11:07 51°29.866 2°16.838 13.5 5 11.4 102640 84
2004-11-23 11:08 51°30.102 2°16.729 14.2 6 11.4 102650 84
2004-11-23 11:09 51°30.369 2°16.605 12.3 10 11.4 102640 84
2004-11-23 11:11 51°30.661 2°16.468 13.2 8 11.4 102640 85
2004-11-23 11:12 51°30.876 2°16.366 12.7 5 11.4 102660 85
2004-11-23 11:13 51°31.104 2°16.255 14.1 12 11.4 102640 86
2004-11-23 11:14 51°31.327 2°16.143 14.3 358 11.3 102650 86
2004-11-23 11:15 51°31.549 2°16.036 14.1 8 11.3 102650 86
2004-11-23 11:16 51°31.837 2°15.897 13.5 6 11.3 102650 86
2004-11-23 11:17 51°32.088 2°15.776 13.2 4 11.3 102650 86
2004-11-23 11:18 51°32.336 2°15.658 13.5 9 11.3 102650 86
2004-11-23 11:19 51°32.596 2°15.535 14.3 10 11.3 102660 86
2004-11-23 11:20 51°32.822 2°15.426 13.3 6 11.2 102650 86
2004-11-23 11:21 51°33.048 2°15.316 13.3 9 11.2 102660 85
2004-11-23 11:22 51°33.31 2°15.18 12.4 5 11.2 102660 85
2004-11-23 11:24 51°33.594 2°15.098 12.3 350 11.3 102650 86
2004-11-23 11:25 51°33.808 2°15.261 11.4 337 11.3 102640 86
2004-11-23 11:26 51°34 2°15.488 13.1 332 11.3 102640 86
2004-11-23 11:27 51°34.186 2°15.73 11.4 332 11.2 102640 86
2004-11-23 11:28 51°34.391 2°16.013 13.1 331 11.2 102640 86
2004-11-23 11:29 51°34.586 2°16.289 12.8 332 11.2 102620 86
2004-11-23 11:30 51°34.77 2°16.552 12.5 336 11.2 102640 86
2004-11-23 11:31 51°34.955 2°16.819 11.1 336 11.2 102650 86
2004-11-23 11:32 51°35.205 2°17.171 13 336 11.2 102640 86
2004-11-23 11:33 51°35.382 2°17.43 11.7 336 11.2 102640 86
2004-11-23 11:35 51°35.625 2°17.778 11.9 335 11.2 102650 86
2004-11-23 11:36 51°35.831 2°18.074 13 334 11.2 102640 86
2004-11-23 11:37 51°36.018 2°18.341 12.6 334 11.2 102640 86
2004-11-23 11:38 51°36.194 2°18.591 11.8 335 11.2 102630 87
2004-11-23 11:39 51°36.381 2°18.861 11.9 338 11.2 102640 86
2004-11-23 11:40 51°36.558 2°19.115 12.6 337 11.2 102630 87
2004-11-23 11:41 51°36.767 2°19.39 12.3 338 11.2 102640 86
2004-11-23 11:42 51°36.961 2°19.647 13.5 336 11.2 102640 87
2004-11-23 11:43 51°37.216 2°19.992 10.6 344 11.2 102630 87
2004-11-23 11:45 51°37.467 2°20.331 13.2 340 11.2 102640 87
2004-11-23 11:46 51°37.658 2°20.589 12.9 336 11.2 102640 87
2004-11-23 11:47 51°37.872 2°20.881 13.3 336 11.2 102620 87
2004-11-23 11:48 51°38.075 2°21.157 11.8 343 11.2 102630 87
2004-11-23 11:49 51°38.264 2°21.414 11.9 345 11.2 102630 87
2004-11-23 11:50 51°38.475 2°21.702 12.3 341 11.2 102640 87
2004-11-23 11:51 51°38.685 2°21.991 12.7 340 11.2 102640 88
2004-11-23 11:52 51°38.869 2°22.246 11.9 339 11.2 102630 87
2004-11-23 11:53 51°39.099 2°22.56 11 344 11.2 102620 87
2004-11-23 11:54 51°39.336 2°22.879 11.6 341 11.3 102630 87
2004-11-23 11:55 51°39.527 2°23.145 11.8 341 11.3 102630 87
2004-11-23 11:57 51°39.723 2°23.419 10.9 339 11.3 102630 87
2004-11-23 11:58 51°39.906 2°23.69 11.8 345 11.3 102630 87
2004-11-23 11:59 51°40.086 2°23.964 11.8 340 11.3 102620 87
2004-11-23 12:00 51°40.316 2°24.314 12.3 345 11.3 102640 87
2004-11-23 12:01 51°40.516 2°24.616 12.5 344 11.4 102640 87
2004-11-23 12:02 51°40.691 2°24.881 12.1 341 11.4 102620 87
2004-11-23 12:03 51°40.938 2°25.306 12.1 334 11.4 102630 87
2004-11-23 12:04 51°41.104 2°25.666 13.1 335 11.4 102630 87
2004-11-23 12:06 51°41.273 2°26.056 12.8 341 11.3 102640 86
2004-11-23 12:07 51°41.439 2°26.498 11.6 358 11.3 102640 86
2004-11-23 12:08 51°41.606 2°26.8 11.6 359 11.2 102640 86
2004-11-23 12:09 51°41.844 2°27.222 11 3 11 102660 85
2004-11-23 12:10 51°42.013 2°27.534 11.2 360 11 102660 86
2004-11-23 12:12 51°42.253 2°27.958 11 2 11 102660 86
2004-11-23 12:13 51°42.387 2°28.285 10.8 350 11 102650 87
2004-11-23 12:14 51°42.444 2°28.685 9.9 347 11 102660 87
2004-11-23 12:15 51°42.472 2°29.101 10.1 349 11 102650 87
2004-11-23 12:16 51°42.5 2°29.495 8.7 346 11 102650 88
2004-11-23 12:17 51°42.519 2°29.862 8.8 344 11 102650 88
2004-11-23 12:18 51°42.537 2°30.253 9 345 11 102650 88
2004-11-23 12:19 51°42.556 2°30.618 10.3 351 10.9 102660 88
2004-11-23 12:20 51°42.578 2°31.052 8.9 355 10.9 102660 88
2004-11-23 12:21 51°42.595 2°31.414 8.3 350 10.9 102650 87
2004-11-23 12:22 51°42.597 2°31.807 9 345 11 102660 87
2004-11-23 12:23 51°42.591 2°32.235 9.2 346 11 102650 86
2004-11-23 12:24 51°42.59 2°32.613 9.4 344 11 102660 86
2004-11-23 12:25 51°42.582 2°33.032 9.8 346 11 102650 85
2004-11-23 12:26 51°42.55 2°33.38 9.3 337 11 102660 84
2004-11-23 12:27 51°42.497 2°33.749 7.8 333 11.1 102660 83
2004-11-23 12:28 51°42.414 2°34.081 9.9 329 11.1 102660 83
2004-11-23 12:30 51°42.316 2°34.469 10.8 331 11.1 102660 81
2004-11-23 12:31 51°42.208 2°34.917 11.5 331 11.1 102650 79
2004-11-23 12:32 51°42.124 2°35.297 10.7 329 11.1 102650 78
2004-11-23 12:33 51°42.043 2°35.634 10.7 342 11.2 102650 77
2004-11-23 12:34 51°41.968 2°35.954 10.7 339 11.2 102650 77
2004-11-23 12:35 51°41.875 2°36.364 9.6 340 11.2 102650 76
2004-11-23 12:36 51°41.793 2°36.705 9.4 332 11.2 102660 76
2004-11-23 12:37 51°41.693 2°37.033 9.7 330 11.2 102660 76
2004-11-23 12:38 51°41.59 2°37.345 9.6 330 11.2 102670 75
2004-11-23 12:39 51°41.488 2°37.674 9.2 336 11.2 102680 75
2004-11-23 12:40 51°41.392 2°37.982 9.9 329 11.3 102670 75
2004-11-23 12:41 51°41.284 2°38.299 10.4 324 11.2 102670 75
2004-11-23 12:42 51°41.182 2°38.606 9.8 329 11.2 102680 74
2004-11-23 12:43 51°41.075 2°38.925 8.6 329 11.3 102670 75
2004-11-23 12:44 51°40.939 2°39.312 10.2 330 11.3 102670 74
2004-11-23 12:46 51°40.799 2°39.685 9.9 331 11.3 102670 74
2004-11-23 12:47 51°40.681 2°39.986 9.2 328 11.3 102670 74
2004-11-23 12:48 51°40.553 2°40.264 9.3 324 11.3 102660 74
2004-11-23 12:49 51°40.375 2°40.657 8.3 329 11.2 102680 73
2004-11-23 12:50 51°40.244 2°40.947 8.2 331 11.3 102670 73
2004-11-23 12:51 51°40.11 2°41.235 8.9 330 11.2 102680 72
2004-11-23 12:52 51°39.98 2°41.512 10.7 320 11.2 102670 72
2004-11-23 12:53 51°39.853 2°41.783 8.6 329 11.2 102670 72
2004-11-23 12:54 51°39.704 2°42.088 8.1 325 11.2 102680 71
2004-11-23 12:56 51°39.445 2°42.413 7.1 322 11.2 102690 71
2004-11-23 12:57 51°39.249 2°42.512 4.6 328 11.2 102700 70
2004-11-23 12:58 51°39.046 2°42.487 4.3 335 11.2 102700 70
2004-11-23 12:59 51°38.831 2°42.311 2.5 358 11.3 102710 71
2004-11-23 13:00 51°38.658 2°42.1 2.9 342 11.3 102710 70
2004-11-23 13:02 51°38.333 2°41.738 2.5 336 11.3 102710 70
2004-11-23 13:03 51°38.132 2°41.498 2.7 2 11.4 102710 70
2004-11-23 13:05 51°37.867 2°41.169 2.6 346 11.3 102710 69
2004-11-23 13:06 51°37.702 2°40.978 2.7 345 11.4 102720 70
2004-11-23 13:07 51°37.483 2°40.72 2.5 340 11.4 102710 70
2004-11-23 13:08 51°37.28 2°40.478 2.5 343 11.4 102720 69
2004-11-23 13:09 51°37.111 2°40.275 2.6 345 11.4 102720 70
2004-11-23 13:11 51°36.868 2°39.982 2.4 353 11.4 102720 69
2004-11-23 13:12 51°36.669 2°39.738 3.2 7 11.4 102730 70
2004-11-23 13:13 51°36.46 2°39.496 3.6 3 11.4 102730 70
2004-11-23 13:14 51°36.227 2°39.215 3.1 3 11.4 102730 70
2004-11-23 13:16 51°35.958 2°38.898 2.9 15 11.4 102730 70
2004-11-23 13:17 51°35.762 2°38.665 2.9 7 11.4 102730 70
2004-11-23 13:18 51°35.568 2°38.462 2.7 351 11.4 102740 70
2004-11-23 13:20 51°35.343 2°38.227 3.4 352 11.4 102730 70
2004-11-23 13:21 51°35.165 2°38.093 5.2 329 11.4 102740 71
2004-11-23 13:22 51°34.903 2°38.257 7.1 323 11.4 102720 71
2004-11-23 13:23 51°34.715 2°38.418 6.4 329 11.4 102720 71
2004-11-23 13:24 51°34.519 2°38.763 9.3 333 11.4 102720 72
2004-11-23 13:25 51°34.388 2°39.105 10.1 339 11.4 102720 72
2004-11-23 13:26 51°34.272 2°39.408 9.1 343 11.4 102720 72
2004-11-23 13:28 51°34.134 2°39.761 8.9 337 11.4 102720 71
2004-11-23 13:29 51°33.969 2°40.178 9.8 337 11.3 102720 70
2004-11-23 13:30 51°33.827 2°40.444 7.1 325 11.3 102720 70
2004-11-23 13:32 51°33.476 2°40.479 5.4 331 11.3 102740 70
2004-11-23 13:33 51°33.17 2°40.409 4.8 326 11.3 102730 70
2004-11-23 13:35 51°32.882 2°40.312 5.5 327 11.3 102740 70
2004-11-23 13:36 51°32.678 2°40.24 4.3 328 11.3 102740 71
2004-11-23 13:37 51°32.353 2°40.124 5.6 331 11.3 102750 71
2004-11-23 13:39 51°32.073 2°40.025 5 339 11.4 102740 72
2004-11-23 13:40 51°31.865 2°39.949 5.9 328 11.4 102740 73
2004-11-23 13:41 51°31.638 2°39.867 6.1 331 11.4 102740 73
2004-11-23 13:42 51°31.396 2°39.771 5.9 331 11.3 102740 73
2004-11-23 13:43 51°31.164 2°39.683 5.4 327 11.3 102740 73
2004-11-23 13:45 51°30.873 2°39.57 6.3 338 11.3 102740 74
2004-11-23 13:46 51°30.503 2°39.373 6 339 11.3 102750 76
2004-11-23 13:48 51°30.273 2°39.067 5.4 334 11.3 102750 77
2004-11-23 13:49 51°30.075 2°38.789 4.8 341 11.2 102750 76
2004-11-23 13:51 51°29.797 2°38.374 5.3 342 11.2 102760 78
2004-11-23 13:52 51°29.623 2°38.099 4.9 343 11.2 102770 78
2004-11-23 13:53 51°29.452 2°37.809 5.3 338 11.2 102760 78
2004-11-23 13:54 51°29.295 2°37.544 5.1 335 11.2 102770 78
2004-11-23 13:55 51°29.143 2°37.286 4.5 342 11.1 102760 79
2004-11-23 13:56 51°28.975 2°37 5.9 343 11.1 102770 79
2004-11-23 13:58 51°28.753 2°36.633 4.7 343 11.1 102770 79
2004-11-23 13:59 51°28.566 2°36.458 6.5 332 11.1 102750 79
2004-11-23 14:00 51°28.345 2°36.404 8.1 333 11.1 102760 79
2004-11-23 14:01 51°28.002 2°36.443 8.3 339 11.1 102760 80
2004-11-23 14:02 51°27.764 2°36.513 7.9 354 11.1 102760 80
2004-11-23 14:03 51°27.539 2°36.626 8.1 355 11.2 102760 82
2004-11-23 14:04 51°27.332 2°36.735 7.5 2 11.1 102760 83
2004-11-23 14:06 51°27.106 2°36.848 8.2 4 11 102760 84
2004-11-23 14:07 51°26.909 2°37.005 7.5 1 10.9 102760 86
2004-11-23 14:08 51°26.573 2°37.274 7.4 360 10.7 102770 87
2004-11-23 14:09 51°26.377 2°37.427 6.8 9 10.7 102770 88
2004-11-23 14:10 51°26.186 2°37.576 7.1 1 10.7 102780 89
2004-11-23 14:12 51°25.897 2°37.793 7.5 7 10.6 102770 90
2004-11-23 14:13 51°25.631 2°37.997 7.5 359 10.5 102770 91
2004-11-23 14:14 51°25.434 2°38.142 6.6 3 10.5 102780 91
2004-11-23 14:15 51°25.203 2°38.316 7 6 10.5 102770 92
2004-11-23 14:16 51°25.011 2°38.461 6.6 5 10.5 102770 92
2004-11-23 14:17 51°24.8 2°38.603 6.8 5 10.4 102780 93
2004-11-23 14:18 51°24.592 2°38.712 6.7 1 10.4 102780 93
2004-11-23 14:19 51°24.383 2°38.826 6.9 6 10.4 102780 93
2004-11-23 14:20 51°24.139 2°38.958 7.2 7 10.4 102790 94
2004-11-23 14:21 51°23.927 2°39.069 7.4 8 10.4 102790 94
2004-11-23 14:22 51°23.717 2°39.176 7 6 10.3 102790 94
2004-11-23 14:24 51°23.41 2°39.324 6.6 10 10.3 102790 95
2004-11-23 14:25 51°23.198 2°39.422 6.9 6 10.3 102790 95
2004-11-23 14:26 51°22.941 2°39.51 7.2 11 10.2 102800 95
2004-11-23 14:27 51°22.698 2°39.588 6.3 11 10.2 102790 95
2004-11-23 14:29 51°22.388 2°39.691 6.7 5 10.2 102800 96
2004-11-23 14:30 51°22.042 2°39.804 7 4 10.1 102800 96
2004-11-23 14:31 51°21.825 2°39.879 6.5 9 10.1 102800 96
2004-11-23 14:32 51°21.609 2°39.95 7 10 10.1 102790 96
2004-11-23 14:33 51°21.389 2°40.022 6.9 8 10 102800 96
2004-11-23 14:35 51°21.001 2°40.151 7.5 12 10 102800 96
2004-11-23 14:36 51°20.792 2°40.223 6.6 3 10 102800 97
2004-11-23 14:37 51°20.63 2°40.446 7.1 7 10 102800 97
2004-11-23 14:38 51°20.513 2°40.729 7 4 10 102800 97
2004-11-23 14:39 51°20.397 2°41.016 6.9 4 10 102810 97
2004-11-23 14:40 51°20.295 2°41.318 6.9 7 10 102810 97
2004-11-23 14:41 51°20.178 2°41.723 7.5 359 10 102810 97
2004-11-23 14:42 51°20.091 2°42.038 7.2 4 10 102810 97
2004-11-23 14:43 51°19.989 2°42.388 7.8 359 10 102810 97
2004-11-23 14:45 51°19.842 2°42.973 7.5 2 10 102820 98
2004-11-23 14:46 51°19.76 2°43.301 8.4 359 10 102810 98
2004-11-23 14:47 51°19.669 2°43.68 7.5 358 10 102810 98
2004-11-23 14:48 51°19.59 2°44.001 7.5 355 10 102820 98
2004-11-23 14:49 51°19.504 2°44.335 7.9 1 9.9 102820 98
2004-11-23 14:50 51°19.424 2°44.654 8.4 355 9.9 102810 98
2004-11-23 14:51 51°19.339 2°44.976 8.4 356 9.8 102810 98
2004-11-23 14:52 51°19.262 2°45.286 8.1 356 9.8 102820 98
2004-11-23 14:54 51°19.17 2°45.645 9 355 9.8 102820 98
2004-11-23 14:55 51°19.083 2°45.958 8.7 355 9.8 102830 98
2004-11-23 14:56 51°18.996 2°46.273 8.9 353 9.8 102820 98
2004-11-23 14:57 51°18.915 2°46.593 9.4 349 9.7 102810 98
2004-11-23 14:58 51°18.835 2°46.91 9.3 351 9.6 102810 98
2004-11-23 14:59 51°18.733 2°47.3 9 351 9.6 102820 98
2004-11-23 15:00 51°18.652 2°47.618 9.6 351 9.6 102830 98
2004-11-23 15:01 51°18.578 2°47.934 9.5 355 9.6 102820 98
2004-11-23 15:02 51°18.501 2°48.283 8.9 351 9.6 102830 98
2004-11-23 15:03 51°18.431 2°48.596 9.5 347 9.6 102840 97
2004-11-23 15:04 51°18.355 2°48.905 9.6 350 9.6 102830 97
2004-11-23 15:05 51°18.285 2°49.22 9 360 9.6 102840 97
2004-11-23 15:06 51°18.194 2°49.601 9.9 354 9.6 102840 97
2004-11-23 15:07 51°18.12 2°49.92 9 355 9.6 102830 97
2004-11-23 15:08 51°18.046 2°50.219 9.3 353 9.6 102840 96
2004-11-23 15:09 51°17.971 2°50.555 9.3 352 9.6 102830 96
2004-11-23 15:10 51°17.898 2°50.869 10 348 9.6 102840 96
2004-11-23 15:11 51°17.82 2°51.192 9.2 351 9.6 102840 95
2004-11-23 15:12 51°17.74 2°51.522 9 353 9.6 102830 95
2004-11-23 15:13 51°17.625 2°51.8 9.2 349 9.6 102840 95
2004-11-23 15:14 51°17.464 2°52.024 7.6 343 9.6 102840 94
2004-11-23 15:15 51°17.206 2°52.145 7 342 9.6 102850 94
2004-11-23 15:16 51°16.987 2°52.238 7.8 340 9.6 102850 93
2004-11-23 15:17 51°16.775 2°52.329 6.9 343 9.6 102850 93
2004-11-23 15:19 51°16.52 2°52.443 7.3 342 9.6 102850 92
2004-11-23 15:20 51°16.299 2°52.541 7 338 9.6 102860 91
2004-11-23 15:21 51°16.053 2°52.659 6.8 342 9.6 102860 91
2004-11-23 15:22 51°15.843 2°52.755 7.6 341 9.6 102860 91
2004-11-23 15:23 51°15.624 2°52.937 7.9 343 9.6 102850 91
2004-11-23 15:24 51°15.433 2°53.113 6.3 337 9.6 102860 90
2004-11-23 15:25 51°15.235 2°53.311 8.2 349 9.6 102860 90
2004-11-23 15:26 51°15.095 2°53.555 8.8 348 9.6 102860 90
2004-11-23 15:27 51°14.956 2°53.812 8.3 348 9.6 102860 90
2004-11-23 15:28 51°14.814 2°54.083 8 344 9.6 102860 90
2004-11-23 15:29 51°14.644 2°54.416 8.3 348 9.6 102860 90
2004-11-23 15:31 51°14.484 2°54.761 8.1 349 9.6 102860 90
2004-11-23 15:32 51°14.348 2°55.101 7.1 356 9.6 102860 90
2004-11-23 15:33 51°14.231 2°55.318 5.4 346 9.6 102870 90
2004-11-23 15:34 51°14.094 2°55.444 4 341 9.6 102870 91
2004-11-23 15:35 51°13.947 2°55.546 4.6 352 9.6 102870 91
2004-11-23 15:37 51°13.761 2°55.695 4.1 359 9.7 102880 91
2004-11-23 15:38 51°13.683 2°55.842 3.7 350 9.8 102880 90
2004-11-23 15:39 51°13.648 2°55.957 2.4 358 9.8 102880 90
2004-11-23 15:40 51°13.629 2°56.033 2.3 345 9.8 102880 90
2004-11-23 15:41 51°13.617 2°56.058 0.9 319 9.8 102880 90